• Join FlightAware (Why Join?)
  • Login
  • US Flag 
05:49AM EDT


 

Airport Tracker/Info


-or-


 

Live Flight TrackerFlight Track Log ✈ N60GS ✈ 20-Jul-2013 ✈ KOSA - KDHN

Flight Track Log - Related Links

Times and Time Zones

All times are in EDT time to prevent confusion due to time zone crossing. See the N60GS flight status page for this flight to view local times or setup timezone preferences in your user account.

Time Position Orientation Groundspeed Altitude Reporting Facility
EDT Latitude Longitude Course Direction KTS MPH feet Rate Location/Type
01:30PM 33.0547 -94.8011 102° East 274 315 7,000  Level Fort Worth Center
01:31PM 33.0450 -94.7394 101° East 236 272 9,200 2,100 Climbing Fort Worth Center
01:32PM 33.0397 -94.6803 96° East 200 230 11,200 1,920 Climbing Fort Worth Center
01:33PM 33.0278 -94.6136 102° East 193 222 13,100 1,740 Climbing Fort Worth Center
01:34PM 33.0183 -94.4831 97° East  Level FlightAware Approximate
01:34PM 33.0200 -94.5469 98° East 199 229 14,700  Level Fort Worth Center
01:35PM 33.0023 -94.3874 102° East  Level FlightAware Approximate
01:35PM 33.0100 -94.4731 99° East 211 243 16,200  Level Fort Worth Center
01:36PM 32.9978 -94.3992 101° East 218 251 17,600 1,200 Climbing Fort Worth Center
01:37PM 32.9853 -94.3228 101° East 223 257 18,700 1,260 Climbing Fort Worth Center
01:38PM 32.9731 -94.2439 100° East 229 264 20,200 1,320 Climbing Fort Worth Center
01:39PM 32.9628 -94.1700 99° East 243 280 21,400 1,200 Climbing Fort Worth Center
01:40PM 32.9503 -94.0911 101° East 243 280 22,600 1,140 Climbing Fort Worth Center
01:41PM 32.9375 -94.0075 100° East 248 285 23,700 1,080 Climbing Fort Worth Center
01:42PM 32.9269 -93.9239 99° East 248 285 24,800 1,020 Climbing Fort Worth Center
01:43PM 32.9142 -93.8378 100° East 258 297 25,800 1,140 Climbing Fort Worth Center
01:44PM 32.8992 -93.7542 102° East 258 297 27,100 1,200 Climbing Fort Worth Center
01:45PM 32.8883 -93.6731 99° East 258 297 28,200 1,020 Climbing Fort Worth Center
01:46PM 32.8756 -93.5894 100° East 258 297 29,200 1,020 Climbing Fort Worth Center
01:47PM 32.8625 -93.5083 101° East 258 297 30,300 1,080 Climbing Fort Worth Center
01:48PM 32.8517 -93.4297 99° East 253 291 31,400 1,020 Climbing Fort Worth Center
01:49PM 32.8386 -93.3486 101° East 253 291 32,400 960 Climbing Fort Worth Center
01:50PM 32.8278 -93.2700 99° East 253 291 33,400 900 Climbing Fort Worth Center
01:51PM 32.8147 -93.1892 101° East 253 291 34,200 780 Climbing Fort Worth Center
01:52PM 32.8017 -93.1108 101° East 253 291 35,000 360 Climbing Fort Worth Center
01:53PM 32.7881 -93.0225 100° East 253 291 35,000  Level Fort Worth Center
01:54PM 32.7722 -92.9294 101° East 272 313 35,000  Level Fort Worth Center
01:55PM 32.7561 -92.8289 101° East 292 336 35,000  Level Fort Worth Center
01:56PM 32.7417 -92.7233 99° East 306 352 35,000  Level Fort Worth Center
01:57PM 32.7231 -92.6158 102° East 318 366 35,000  Level Fort Worth Center
01:58PM 32.7036 -92.4908 100° East 323 372 35,000  Level Fort Worth Center
01:59PM 32.6872 -92.3883 101° East 323 372 35,000  Level Fort Worth Center
02:00PM 32.6683 -92.2831 102° East 323 372 35,000  Level Fort Worth Center
02:01PM 32.6494 -92.1831 103° East 316 364 35,000  Level Fort Worth Center
02:03PM 32.6133 -91.9825 102° East 323 372 35,000  Level Memphis Center
02:04PM 32.5958 -91.8811 102° East 323 372 35,000  Level Memphis Center
02:05PM 32.5806 -91.7750 100° East 316 364 35,000  Level Memphis Center
02:06PM 32.5606 -91.6736 103° East 316 364 35,000  Level Memphis Center
02:07PM 32.5450 -91.5722 100° East 316 364 35,000  Level Memphis Center
02:08PM 32.5250 -91.4686 103° East 316 364 35,000  Level Memphis Center
02:09PM 32.5072 -91.3647 101° East 316 364 35,000  Level Memphis Center
02:10PM 32.4872 -91.2611 103° East 316 364 35,000  Level Memphis Center
02:11PM 32.4711 -91.1550 100° East 316 364 35,000  Level Memphis Center
02:12PM 32.4508 -91.0539 103° East 316 364 35,000  Level Memphis Center
02:13PM 32.4347 -90.9603 102° East 321 369 35,000  Level Memphis Center
02:14PM 32.4164 -90.8544 102° East 321 369 35,000  Level Memphis Center
02:15PM 32.3978 -90.7511 102° East 316 364 35,000  Level Memphis Center
02:16PM 32.3794 -90.6450 102° East 316 364 35,000  Level Memphis Center
02:17PM 32.3586 -90.5442 104° East 316 364 35,000  Level Memphis Center
02:18PM 32.3419 -90.4408 101° East 316 364 35,000  Level Memphis Center
02:19PM 32.3211 -90.3378 103° East 316 364 35,000  Level Memphis Center
02:20PM 32.3044 -90.2344 101° East 316 364 35,000  Level Memphis Center
02:21PM 32.2833 -90.1289 103° East 316 364 35,000  Level Memphis Center
02:22PM 32.2644 -90.0281 102° East 316 364 35,000  Level Memphis Center
02:23PM 32.2453 -89.9225 102° East 316 364 35,000  Level Memphis Center
02:24PM 32.2261 -89.8219 103° East 316 364 35,000  Level Memphis Center
02:25PM 32.2047 -89.7067 102° East 316 364 35,000  Level Memphis Center
02:26PM 32.1875 -89.6036 101° East 316 364 35,000  Level Memphis Center
02:27PM 32.1658 -89.5008 104° East 316 364 35,000  Level Memphis Center
02:28PM 32.1483 -89.3981 101° East 316 364 35,000  Level Memphis Center
02:29PM 32.1286 -89.2953 103° East 316 364 35,000  Level Memphis Center
02:30PM 32.1069 -89.1925 104° East 316 364 35,000  Level Memphis Center
02:31PM 32.0872 -89.0897 103° East 322 371 35,000  Level Memphis Center
02:32PM 32.0672 -88.9869 103° East 317 365 35,000  Level Memphis Center
02:33PM 32.0494 -88.8819 101° East 317 365 35,000  Level Memphis Center
02:39PM 31.8772 -88.3089 109° East 317 365 35,000  Level Atlanta Center
02:40PM 31.8453 -88.2072 110° East 316 364 35,000 -540 Level Atlanta Center
02:41PM 31.8153 -88.1056 109° East 316 364 34,000 -1,320 Descending Atlanta Center
02:42PM 31.7814 -87.9964 110° East 335 386 32,400 -1,740 Descending Atlanta Center
02:43PM 31.7536 -87.8806 106° East 351 404 30,600 -1,980 Descending Atlanta Center
02:44PM 31.7383 -87.7653 99° East 356 410 28,500 -1,920 Descending Atlanta Center
02:45PM 31.7272 -87.6525 97° East 356 410 26,800 -1,740 Descending Atlanta Center
02:46PM 31.7053 -87.5417 103° East 351 404 25,100 -1,440 Descending Atlanta Center
02:47PM 31.6875 -87.4336 101° East 346 398 24,000 -600 Descending Atlanta Center
02:48PM 31.6672 -87.3303 103° East 332 382 24,000 -240 Level Atlanta Center
02:49PM 31.6344 -87.2317 111° Southeast 327 376 23,600 -1,080 Descending Atlanta Center
02:51PM 31.5828 -87.0481 108° East 341 392 21,100 -1,440 Descending Jacksonville Center
02:52PM 31.5653 -86.9400 101° East 341 392 19,600 -1,560 Descending Jacksonville Center
02:52PM 31.5497 -86.8417 100° East 342 394 18,400 -1,500 Descending Jacksonville Center
02:54PM 31.5325 -86.7264 100° East 329 379 16,700 -1,500 Descending Jacksonville Center
02:55PM 31.5144 -86.6258 102° East 317 365 15,200 -1,500 Descending Jacksonville Center
02:56PM 31.4986 -86.5278 101° East 311 358 13,700 -1,620 Descending Jacksonville Center
02:57PM 31.5017 -86.4158 88° East 303 349 12,000 -1,500 Descending Jacksonville Center
02:58PM 31.5083 -86.3308 85° East 301 346 10,700 -1,560 Descending Jacksonville Center
02:59PM 31.5439 -86.2419 65° Northeast 290 334 9,100 -1,500 Descending Jacksonville Center
03:00PM 31.5814 -86.1678 59° Northeast 285 328 7,800 -1,320 Descending Jacksonville Center
03:01PM 31.6336 -86.0914 51° Northeast 281 323 6,500 -1,260 Descending Jacksonville Center
03:02PM 31.6853 -86.0175 51° Northeast 269 310 5,400 -840 Descending Jacksonville Center
03:03PM 31.7286 -85.9531 52° Northeast 264 304 4,900 -420 Descending Jacksonville Center
03:04PM 31.7097 -85.8719 105° East 259 298 4,600 -180 Descending Jacksonville Center
03:05PM 31.6778 -85.8072 120° Southeast 240 276 4,600 -120 Level Jacksonville Center
03:06PM 31.6378 -85.7331 122° Southeast 257 296 4,400 -240 Descending Jacksonville Center
03:07PM 31.5994 -85.6733 127° Southeast 262 302 4,200 -180 Descending Jacksonville Center
03:08PM 31.5531 -85.6011 127° Southeast 263 303 4,100 -780 Descending Jacksonville Center
03:09PM 31.5297 -85.5225 109° East 262 302 2,700 -1,200 Descending Jacksonville Center
03:09PM 31.5036 -85.4731 122° Southeast 203 234 1,800 -480 Descending Jacksonville Center
03:10PM 31.4533 -85.4717 179° South 164 189 1,800  Level Jacksonville Center